sensor_id;sensor_type;location;lat;lon;timestamp;P1;durP1;ratioP1;P2;durP2;ratioP2
76850;SDS011;65824;43.726;20.692;2023-03-14T00:01:51;20.27;;;9.30;;
76850;SDS011;65824;43.726;20.692;2023-03-14T00:04:17;18.17;;;8.90;;
76850;SDS011;65824;43.726;20.692;2023-03-14T00:06:43;18.27;;;9.13;;
76850;SDS011;65824;43.726;20.692;2023-03-14T00:09:12;20.92;;;8.73;;
76850;SDS011;65824;43.726;20.692;2023-03-14T00:11:39;16.70;;;8.18;;
76850;SDS011;65824;43.726;20.692;2023-03-14T00:14:04;20.17;;;8.52;;
76850;SDS011;65824;43.726;20.692;2023-03-14T00:16:30;16.33;;;7.97;;
76850;SDS011;65824;43.726;20.692;2023-03-14T00:18:55;19.38;;;8.88;;
76850;SDS011;65824;43.726;20.692;2023-03-14T00:21:22;16.20;;;7.90;;
76850;SDS011;65824;43.726;20.692;2023-03-14T00:23:47;13.32;;;7.13;;
76850;SDS011;65824;43.726;20.692;2023-03-14T00:26:14;17.50;;;8.48;;
76850;SDS011;65824;43.726;20.692;2023-03-14T00:28:41;13.65;;;7.57;;
76850;SDS011;65824;43.726;20.692;2023-03-14T00:31:08;16.10;;;8.95;;
76850;SDS011;65824;43.726;20.692;2023-03-14T00:33:34;20.58;;;9.63;;
76850;SDS011;65824;43.726;20.692;2023-03-14T00:36:04;14.75;;;7.80;;
76850;SDS011;65824;43.726;20.692;2023-03-14T00:38:36;14.57;;;8.07;;
76850;SDS011;65824;43.726;20.692;2023-03-14T00:41:03;17.70;;;7.78;;
76850;SDS011;65824;43.726;20.692;2023-03-14T00:43:33;15.82;;;7.32;;
76850;SDS011;65824;43.726;20.692;2023-03-14T00:45:58;15.60;;;7.63;;
76850;SDS011;65824;43.726;20.692;2023-03-14T00:48:25;13.73;;;7.75;;
76850;SDS011;65824;43.726;20.692;2023-03-14T00:50:51;14.77;;;7.55;;
76850;SDS011;65824;43.726;20.692;2023-03-14T00:53:16;16.48;;;8.05;;
76850;SDS011;65824;43.726;20.692;2023-03-14T00:55:42;15.80;;;8.18;;
76850;SDS011;65824;43.726;20.692;2023-03-14T00:58:09;17.60;;;8.38;;
76850;SDS011;65824;43.726;20.692;2023-03-14T01:00:38;15.10;;;7.65;;
76850;SDS011;65824;43.726;20.692;2023-03-14T01:03:04;14.73;;;7.40;;
76850;SDS011;65824;43.726;20.692;2023-03-14T01:05:30;16.08;;;7.60;;
76850;SDS011;65824;43.726;20.692;2023-03-14T01:07:56;18.08;;;7.65;;
76850;SDS011;65824;43.726;20.692;2023-03-14T01:10:21;16.10;;;7.30;;
76850;SDS011;65824;43.726;20.692;2023-03-14T01:12:47;11.35;;;6.35;;
76850;SDS011;65824;43.726;20.692;2023-03-14T01:15:12;13.05;;;7.18;;
76850;SDS011;65824;43.726;20.692;2023-03-14T01:17:38;13.07;;;7.13;;
76850;SDS011;65824;43.726;20.692;2023-03-14T01:20:04;17.20;;;7.43;;
76850;SDS011;65824;43.726;20.692;2023-03-14T01:22:34;14.75;;;7.03;;
76850;SDS011;65824;43.726;20.692;2023-03-14T01:25:05;16.73;;;7.40;;
76850;SDS011;65824;43.726;20.692;2023-03-14T01:27:32;14.95;;;7.03;;
76850;SDS011;65824;43.726;20.692;2023-03-14T01:29:58;15.23;;;7.10;;
76850;SDS011;65824;43.726;20.692;2023-03-14T01:32:24;16.02;;;8.35;;
76850;SDS011;65824;43.726;20.692;2023-03-14T01:34:50;12.88;;;7.47;;
76850;SDS011;65824;43.726;20.692;2023-03-14T01:37:18;15.40;;;8.48;;
76850;SDS011;65824;43.726;20.692;2023-03-14T01:39:45;14.50;;;7.43;;
76850;SDS011;65824;43.726;20.692;2023-03-14T01:42:12;16.00;;;7.38;;
76850;SDS011;65824;43.726;20.692;2023-03-14T01:47:13;15.05;;;7.10;;
76850;SDS011;65824;43.726;20.692;2023-03-14T01:49:39;13.20;;;7.05;;
76850;SDS011;65824;43.726;20.692;2023-03-14T01:54:41;15.93;;;8.05;;
76850;SDS011;65824;43.726;20.692;2023-03-14T01:57:14;17.65;;;7.82;;
76850;SDS011;65824;43.726;20.692;2023-03-14T02:02:44;16.63;;;7.85;;
76850;SDS011;65824;43.726;20.692;2023-03-14T02:05:16;16.77;;;8.27;;
76850;SDS011;65824;43.726;20.692;2023-03-14T02:07:50;14.63;;;8.32;;
76850;SDS011;65824;43.726;20.692;2023-03-14T02:10:21;18.70;;;9.20;;
76850;SDS011;65824;43.726;20.692;2023-03-14T02:12:49;16.10;;;8.07;;
76850;SDS011;65824;43.726;20.692;2023-03-14T02:15:15;17.35;;;8.13;;
76850;SDS011;65824;43.726;20.692;2023-03-14T02:17:41;18.42;;;8.50;;
76850;SDS011;65824;43.726;20.692;2023-03-14T02:20:17;18.52;;;8.07;;
76850;SDS011;65824;43.726;20.692;2023-03-14T02:22:48;15.98;;;7.20;;
76850;SDS011;65824;43.726;20.692;2023-03-14T02:25:24;16.70;;;7.50;;
76850;SDS011;65824;43.726;20.692;2023-03-14T02:27:53;15.30;;;7.47;;
76850;SDS011;65824;43.726;20.692;2023-03-14T02:30:22;15.10;;;7.72;;
76850;SDS011;65824;43.726;20.692;2023-03-14T02:32:52;14.10;;;7.10;;
76850;SDS011;65824;43.726;20.692;2023-03-14T02:35:22;13.93;;;6.50;;
76850;SDS011;65824;43.726;20.692;2023-03-14T02:37:50;15.77;;;6.80;;
76850;SDS011;65824;43.726;20.692;2023-03-14T02:40:18;15.02;;;7.05;;
76850;SDS011;65824;43.726;20.692;2023-03-14T02:42:44;13.88;;;6.90;;
76850;SDS011;65824;43.726;20.692;2023-03-14T02:47:36;16.13;;;8.15;;
76850;SDS011;65824;43.726;20.692;2023-03-14T02:50:12;15.40;;;7.80;;
76850;SDS011;65824;43.726;20.692;2023-03-14T02:52:39;15.98;;;7.75;;
76850;SDS011;65824;43.726;20.692;2023-03-14T02:55:05;17.15;;;8.38;;
76850;SDS011;65824;43.726;20.692;2023-03-14T02:57:30;15.45;;;7.25;;
76850;SDS011;65824;43.726;20.692;2023-03-14T03:00:00;18.00;;;8.30;;
76850;SDS011;65824;43.726;20.692;2023-03-14T03:02:27;21.33;;;9.88;;
76850;SDS011;65824;43.726;20.692;2023-03-14T03:04:52;17.98;;;8.70;;
76850;SDS011;65824;43.726;20.692;2023-03-14T03:07:18;17.25;;;8.07;;
76850;SDS011;65824;43.726;20.692;2023-03-14T03:09:44;17.70;;;8.35;;
76850;SDS011;65824;43.726;20.692;2023-03-14T03:12:09;20.63;;;8.32;;
76850;SDS011;65824;43.726;20.692;2023-03-14T03:14:35;23.85;;;10.48;;
76850;SDS011;65824;43.726;20.692;2023-03-14T03:17:00;30.58;;;13.40;;
76850;SDS011;65824;43.726;20.692;2023-03-14T03:19:25;43.13;;;17.63;;
76850;SDS011;65824;43.726;20.692;2023-03-14T03:21:52;42.72;;;18.17;;
76850;SDS011;65824;43.726;20.692;2023-03-14T03:24:18;21.17;;;9.77;;
76850;SDS011;65824;43.726;20.692;2023-03-14T03:26:43;15.85;;;8.15;;
76850;SDS011;65824;43.726;20.692;2023-03-14T03:29:08;19.50;;;8.25;;
76850;SDS011;65824;43.726;20.692;2023-03-14T03:31:36;13.82;;;7.30;;
76850;SDS011;65824;43.726;20.692;2023-03-14T03:34:02;16.73;;;7.28;;
76850;SDS011;65824;43.726;20.692;2023-03-14T03:36:28;14.10;;;6.70;;
76850;SDS011;65824;43.726;20.692;2023-03-14T03:38:53;16.02;;;7.05;;
76850;SDS011;65824;43.726;20.692;2023-03-14T03:41:19;14.93;;;6.78;;
76850;SDS011;65824;43.726;20.692;2023-03-14T03:43:45;15.13;;;6.85;;
76850;SDS011;65824;43.726;20.692;2023-03-14T03:46:10;14.23;;;6.57;;
76850;SDS011;65824;43.726;20.692;2023-03-14T03:48:39;15.50;;;6.82;;
76850;SDS011;65824;43.726;20.692;2023-03-14T03:51:05;10.95;;;5.80;;
76850;SDS011;65824;43.726;20.692;2023-03-14T03:53:31;12.63;;;6.60;;
76850;SDS011;65824;43.726;20.692;2023-03-14T03:55:56;14.55;;;7.07;;
76850;SDS011;65824;43.726;20.692;2023-03-14T03:58:22;18.50;;;7.30;;
76850;SDS011;65824;43.726;20.692;2023-03-14T04:00:47;12.32;;;6.55;;
76850;SDS011;65824;43.726;20.692;2023-03-14T04:03:13;17.95;;;7.03;;
76850;SDS011;65824;43.726;20.692;2023-03-14T04:05:38;24.67;;;7.07;;
76850;SDS011;65824;43.726;20.692;2023-03-14T04:08:03;14.25;;;6.60;;
76850;SDS011;65824;43.726;20.692;2023-03-14T04:10:30;13.13;;;6.95;;
76850;SDS011;65824;43.726;20.692;2023-03-14T04:12:58;14.05;;;6.78;;
76850;SDS011;65824;43.726;20.692;2023-03-14T04:15:24;16.20;;;7.28;;
76850;SDS011;65824;43.726;20.692;2023-03-14T04:17:49;15.35;;;7.05;;
76850;SDS011;65824;43.726;20.692;2023-03-14T04:20:14;15.50;;;6.53;;
76850;SDS011;65824;43.726;20.692;2023-03-14T04:22:40;15.10;;;6.75;;
76850;SDS011;65824;43.726;20.692;2023-03-14T04:25:06;13.25;;;6.55;;
76850;SDS011;65824;43.726;20.692;2023-03-14T04:27:32;15.60;;;6.82;;
76850;SDS011;65824;43.726;20.692;2023-03-14T04:29:57;17.00;;;6.85;;
76850;SDS011;65824;43.726;20.692;2023-03-14T04:32:25;14.25;;;6.80;;
76850;SDS011;65824;43.726;20.692;2023-03-14T04:34:51;12.48;;;6.43;;
76850;SDS011;65824;43.726;20.692;2023-03-14T04:37:16;16.15;;;6.25;;
76850;SDS011;65824;43.726;20.692;2023-03-14T04:39:44;13.38;;;6.80;;
76850;SDS011;65824;43.726;20.692;2023-03-14T04:42:11;14.27;;;6.78;;
76850;SDS011;65824;43.726;20.692;2023-03-14T04:44:36;16.70;;;6.97;;
76850;SDS011;65824;43.726;20.692;2023-03-14T04:47:02;14.60;;;6.82;;
76850;SDS011;65824;43.726;20.692;2023-03-14T04:49:27;12.40;;;6.57;;
76850;SDS011;65824;43.726;20.692;2023-03-14T04:51:52;14.85;;;6.75;;
76850;SDS011;65824;43.726;20.692;2023-03-14T04:54:18;15.63;;;6.70;;
76850;SDS011;65824;43.726;20.692;2023-03-14T04:56:43;14.52;;;6.95;;
76850;SDS011;65824;43.726;20.692;2023-03-14T04:59:10;14.43;;;6.82;;
76850;SDS011;65824;43.726;20.692;2023-03-14T05:01:35;15.55;;;6.85;;
76850;SDS011;65824;43.726;20.692;2023-03-14T05:04:01;18.25;;;7.43;;
76850;SDS011;65824;43.726;20.692;2023-03-14T05:06:26;20.77;;;9.48;;
76850;SDS011;65824;43.726;20.692;2023-03-14T05:08:57;22.25;;;9.52;;
76850;SDS011;65824;43.726;20.692;2023-03-14T05:11:22;19.20;;;8.88;;
76850;SDS011;65824;43.726;20.692;2023-03-14T05:13:48;19.30;;;8.10;;
76850;SDS011;65824;43.726;20.692;2023-03-14T05:16:14;17.48;;;7.78;;
76850;SDS011;65824;43.726;20.692;2023-03-14T05:18:39;16.77;;;7.95;;
76850;SDS011;65824;43.726;20.692;2023-03-14T05:21:05;18.38;;;7.88;;
76850;SDS011;65824;43.726;20.692;2023-03-14T05:23:31;19.15;;;9.95;;
76850;SDS011;65824;43.726;20.692;2023-03-14T05:25:56;24.98;;;10.15;;
76850;SDS011;65824;43.726;20.692;2023-03-14T05:28:22;21.15;;;9.68;;
76850;SDS011;65824;43.726;20.692;2023-03-14T05:30:47;20.10;;;9.80;;
76850;SDS011;65824;43.726;20.692;2023-03-14T05:33:13;17.15;;;8.38;;
76850;SDS011;65824;43.726;20.692;2023-03-14T05:35:41;16.70;;;8.75;;
76850;SDS011;65824;43.726;20.692;2023-03-14T05:38:07;16.50;;;8.52;;
76850;SDS011;65824;43.726;20.692;2023-03-14T05:40:35;18.10;;;8.23;;
76850;SDS011;65824;43.726;20.692;2023-03-14T05:43:00;18.35;;;8.02;;
76850;SDS011;65824;43.726;20.692;2023-03-14T05:45:27;14.35;;;7.68;;
76850;SDS011;65824;43.726;20.692;2023-03-14T05:47:52;16.77;;;7.72;;
76850;SDS011;65824;43.726;20.692;2023-03-14T05:50:17;13.60;;;7.18;;
76850;SDS011;65824;43.726;20.692;2023-03-14T05:52:43;17.05;;;7.60;;
76850;SDS011;65824;43.726;20.692;2023-03-14T05:55:12;16.23;;;7.53;;
76850;SDS011;65824;43.726;20.692;2023-03-14T05:57:38;14.35;;;7.38;;
76850;SDS011;65824;43.726;20.692;2023-03-14T06:00:04;17.75;;;7.80;;
76850;SDS011;65824;43.726;20.692;2023-03-14T06:02:30;18.25;;;8.15;;
76850;SDS011;65824;43.726;20.692;2023-03-14T06:04:56;18.38;;;7.28;;
76850;SDS011;65824;43.726;20.692;2023-03-14T06:07:21;18.88;;;9.55;;
76850;SDS011;65824;43.726;20.692;2023-03-14T06:09:47;20.63;;;8.82;;
76850;SDS011;65824;43.726;20.692;2023-03-14T06:12:12;21.40;;;10.27;;
76850;SDS011;65824;43.726;20.692;2023-03-14T06:14:37;24.25;;;10.18;;
76850;SDS011;65824;43.726;20.692;2023-03-14T06:17:03;23.17;;;10.20;;
76850;SDS011;65824;43.726;20.692;2023-03-14T06:19:28;25.65;;;11.75;;
76850;SDS011;65824;43.726;20.692;2023-03-14T06:21:54;20.40;;;10.27;;
76850;SDS011;65824;43.726;20.692;2023-03-14T06:24:22;24.58;;;9.43;;
76850;SDS011;65824;43.726;20.692;2023-03-14T06:26:47;20.27;;;9.73;;
76850;SDS011;65824;43.726;20.692;2023-03-14T06:29:12;21.23;;;9.80;;
76850;SDS011;65824;43.726;20.692;2023-03-14T06:31:38;18.60;;;9.63;;
76850;SDS011;65824;43.726;20.692;2023-03-14T06:34:04;19.00;;;9.13;;
76850;SDS011;65824;43.726;20.692;2023-03-14T06:36:31;17.58;;;8.77;;
76850;SDS011;65824;43.726;20.692;2023-03-14T06:38:56;19.13;;;7.47;;
76850;SDS011;65824;43.726;20.692;2023-03-14T06:41:22;15.32;;;6.32;;
76850;SDS011;65824;43.726;20.692;2023-03-14T06:43:50;11.85;;;6.07;;
76850;SDS011;65824;43.726;20.692;2023-03-14T06:46:17;14.18;;;5.72;;
76850;SDS011;65824;43.726;20.692;2023-03-14T06:48:43;11.95;;;5.50;;
76850;SDS011;65824;43.726;20.692;2023-03-14T06:51:08;16.08;;;7.72;;
76850;SDS011;65824;43.726;20.692;2023-03-14T06:53:34;13.13;;;6.30;;
76850;SDS011;65824;43.726;20.692;2023-03-14T06:55:59;14.02;;;5.88;;
76850;SDS011;65824;43.726;20.692;2023-03-14T06:58:24;13.38;;;6.03;;
76850;SDS011;65824;43.726;20.692;2023-03-14T07:00:50;15.57;;;6.78;;
76850;SDS011;65824;43.726;20.692;2023-03-14T07:03:19;13.75;;;5.75;;
76850;SDS011;65824;43.726;20.692;2023-03-14T07:05:46;12.80;;;5.82;;
76850;SDS011;65824;43.726;20.692;2023-03-14T07:08:12;12.30;;;6.05;;
76850;SDS011;65824;43.726;20.692;2023-03-14T07:10:37;17.70;;;6.60;;
76850;SDS011;65824;43.726;20.692;2023-03-14T07:13:03;12.93;;;5.95;;
76850;SDS011;65824;43.726;20.692;2023-03-14T07:15:28;15.25;;;6.45;;
76850;SDS011;65824;43.726;20.692;2023-03-14T07:17:53;11.68;;;6.03;;
76850;SDS011;65824;43.726;20.692;2023-03-14T07:20:19;16.23;;;5.75;;
76850;SDS011;65824;43.726;20.692;2023-03-14T07:22:48;15.18;;;6.05;;
76850;SDS011;65824;43.726;20.692;2023-03-14T07:25:16;14.68;;;5.80;;
76850;SDS011;65824;43.726;20.692;2023-03-14T07:27:43;26.17;;;10.65;;
76850;SDS011;65824;43.726;20.692;2023-03-14T07:30:10;12.13;;;4.78;;
76850;SDS011;65824;43.726;20.692;2023-03-14T07:32:36;15.43;;;6.22;;
76850;SDS011;65824;43.726;20.692;2023-03-14T07:35:01;15.60;;;7.00;;
76850;SDS011;65824;43.726;20.692;2023-03-14T07:37:27;13.07;;;6.38;;
76850;SDS011;65824;43.726;20.692;2023-03-14T07:39:52;11.23;;;5.90;;
76850;SDS011;65824;43.726;20.692;2023-03-14T07:42:18;11.70;;;6.22;;
76850;SDS011;65824;43.726;20.692;2023-03-14T07:44:44;13.95;;;5.82;;
76850;SDS011;65824;43.726;20.692;2023-03-14T07:47:12;12.60;;;5.47;;
76850;SDS011;65824;43.726;20.692;2023-03-14T07:49:37;12.52;;;6.03;;
76850;SDS011;65824;43.726;20.692;2023-03-14T07:52:03;13.90;;;5.15;;
76850;SDS011;65824;43.726;20.692;2023-03-14T07:54:29;14.40;;;5.75;;
76850;SDS011;65824;43.726;20.692;2023-03-14T07:56:54;12.88;;;5.75;;
76850;SDS011;65824;43.726;20.692;2023-03-14T07:59:20;14.02;;;6.65;;
76850;SDS011;65824;43.726;20.692;2023-03-14T08:01:46;14.25;;;6.57;;
76850;SDS011;65824;43.726;20.692;2023-03-14T08:04:13;13.52;;;6.53;;
76850;SDS011;65824;43.726;20.692;2023-03-14T08:06:39;16.00;;;6.38;;
76850;SDS011;65824;43.726;20.692;2023-03-14T08:09:05;16.77;;;7.15;;
76850;SDS011;65824;43.726;20.692;2023-03-14T08:11:32;15.07;;;6.72;;
76850;SDS011;65824;43.726;20.692;2023-03-14T08:13:59;15.05;;;6.35;;
76850;SDS011;65824;43.726;20.692;2023-03-14T08:16:25;14.15;;;6.95;;
76850;SDS011;65824;43.726;20.692;2023-03-14T08:18:50;14.98;;;6.75;;
76850;SDS011;65824;43.726;20.692;2023-03-14T08:21:18;15.68;;;6.35;;
76850;SDS011;65824;43.726;20.692;2023-03-14T08:23:45;15.68;;;6.13;;
76850;SDS011;65824;43.726;20.692;2023-03-14T08:26:10;19.88;;;8.48;;
76850;SDS011;65824;43.726;20.692;2023-03-14T08:28:36;13.82;;;6.45;;
76850;SDS011;65824;43.726;20.692;2023-03-14T08:31:01;12.90;;;6.45;;
76850;SDS011;65824;43.726;20.692;2023-03-14T08:33:28;12.70;;;6.43;;
76850;SDS011;65824;43.726;20.692;2023-03-14T08:35:57;12.45;;;5.45;;
76850;SDS011;65824;43.726;20.692;2023-03-14T08:38:23;14.73;;;5.72;;
76850;SDS011;65824;43.726;20.692;2023-03-14T08:40:55;12.65;;;6.13;;
76850;SDS011;65824;43.726;20.692;2023-03-14T08:43:22;12.50;;;5.72;;
76850;SDS011;65824;43.726;20.692;2023-03-14T08:45:48;13.90;;;6.35;;
76850;SDS011;65824;43.726;20.692;2023-03-14T08:48:16;13.77;;;5.50;;
76850;SDS011;65824;43.726;20.692;2023-03-14T08:50:41;10.80;;;5.45;;
76850;SDS011;65824;43.726;20.692;2023-03-14T08:53:07;12.80;;;6.05;;
76850;SDS011;65824;43.726;20.692;2023-03-14T08:55:33;11.85;;;6.15;;
76850;SDS011;65824;43.726;20.692;2023-03-14T08:58:00;18.60;;;8.27;;
76850;SDS011;65824;43.726;20.692;2023-03-14T09:00:26;15.00;;;7.55;;
76850;SDS011;65824;43.726;20.692;2023-03-14T09:02:52;13.25;;;6.45;;
76850;SDS011;65824;43.726;20.692;2023-03-14T09:05:17;14.70;;;6.28;;
76850;SDS011;65824;43.726;20.692;2023-03-14T09:07:44;11.07;;;6.22;;
76850;SDS011;65824;43.726;20.692;2023-03-14T09:10:09;12.18;;;6.15;;
76850;SDS011;65824;43.726;20.692;2023-03-14T09:12:35;13.63;;;6.22;;
76850;SDS011;65824;43.726;20.692;2023-03-14T09:15:01;11.13;;;5.78;;
76850;SDS011;65824;43.726;20.692;2023-03-14T09:17:27;12.27;;;5.88;;
76850;SDS011;65824;43.726;20.692;2023-03-14T09:19:58;14.50;;;6.15;;
76850;SDS011;65824;43.726;20.692;2023-03-14T09:22:23;12.23;;;5.68;;
76850;SDS011;65824;43.726;20.692;2023-03-14T09:24:50;13.38;;;6.47;;
76850;SDS011;65824;43.726;20.692;2023-03-14T09:27:22;13.50;;;5.47;;
76850;SDS011;65824;43.726;20.692;2023-03-14T09:32:13;13.10;;;6.15;;
76850;SDS011;65824;43.726;20.692;2023-03-14T09:34:40;12.85;;;5.95;;
76850;SDS011;65824;43.726;20.692;2023-03-14T09:37:05;13.30;;;5.90;;
76850;SDS011;65824;43.726;20.692;2023-03-14T09:39:30;11.73;;;5.45;;
76850;SDS011;65824;43.726;20.692;2023-03-14T09:41:56;13.38;;;6.35;;
76850;SDS011;65824;43.726;20.692;2023-03-14T09:44:34;14.30;;;6.60;;
76850;SDS011;65824;43.726;20.692;2023-03-14T09:47:06;15.05;;;6.15;;
76850;SDS011;65824;43.726;20.692;2023-03-14T09:49:33;13.98;;;6.03;;
76850;SDS011;65824;43.726;20.692;2023-03-14T09:52:01;13.98;;;6.10;;
76850;SDS011;65824;43.726;20.692;2023-03-14T09:57:13;9.98;;;5.85;;
76850;SDS011;65824;43.726;20.692;2023-03-14T09:59:41;11.90;;;6.68;;
76850;SDS011;65824;43.726;20.692;2023-03-14T10:02:20;12.52;;;6.38;;
76850;SDS011;65824;43.726;20.692;2023-03-14T10:04:50;11.52;;;6.13;;
76850;SDS011;65824;43.726;20.692;2023-03-14T10:07:18;16.92;;;7.25;;
76850;SDS011;65824;43.726;20.692;2023-03-14T10:09:52;12.90;;;6.20;;
76850;SDS011;65824;43.726;20.692;2023-03-14T10:12:18;14.23;;;6.15;;
76850;SDS011;65824;43.726;20.692;2023-03-14T10:14:51;14.52;;;6.47;;
76850;SDS011;65824;43.726;20.692;2023-03-14T10:17:19;14.32;;;6.60;;
76850;SDS011;65824;43.726;20.692;2023-03-14T10:19:59;14.55;;;6.40;;
76850;SDS011;65824;43.726;20.692;2023-03-14T10:22:29;12.48;;;6.80;;
76850;SDS011;65824;43.726;20.692;2023-03-14T10:24:56;17.15;;;6.57;;
76850;SDS011;65824;43.726;20.692;2023-03-14T10:27:28;12.27;;;6.72;;
76850;SDS011;65824;43.726;20.692;2023-03-14T10:29:57;11.00;;;6.10;;
76850;SDS011;65824;43.726;20.692;2023-03-14T10:32:34;13.52;;;6.65;;
76850;SDS011;65824;43.726;20.692;2023-03-14T10:35:08;12.27;;;6.22;;
76850;SDS011;65824;43.726;20.692;2023-03-14T10:37:56;15.60;;;6.38;;
76850;SDS011;65824;43.726;20.692;2023-03-14T10:40:35;12.82;;;6.70;;
76850;SDS011;65824;43.726;20.692;2023-03-14T10:43:04;13.38;;;5.95;;
76850;SDS011;65824;43.726;20.692;2023-03-14T10:47:58;11.48;;;5.45;;
76850;SDS011;65824;43.726;20.692;2023-03-14T10:50:29;11.38;;;5.63;;
76850;SDS011;65824;43.726;20.692;2023-03-14T10:52:55;15.52;;;5.75;;
76850;SDS011;65824;43.726;20.692;2023-03-14T10:55:22;12.50;;;6.05;;
76850;SDS011;65824;43.726;20.692;2023-03-14T10:57:51;9.65;;;4.75;;
76850;SDS011;65824;43.726;20.692;2023-03-14T11:00:17;12.65;;;5.68;;
76850;SDS011;65824;43.726;20.692;2023-03-14T11:05:43;11.65;;;5.85;;
76850;SDS011;65824;43.726;20.692;2023-03-14T11:11:07;11.30;;;5.50;;
76850;SDS011;65824;43.726;20.692;2023-03-14T11:30:15;11.88;;;4.65;;
76850;SDS011;65824;43.726;20.692;2023-03-14T11:32:47;12.85;;;6.07;;
76850;SDS011;65824;43.726;20.692;2023-03-14T11:41:02;10.65;;;5.68;;
76850;SDS011;65824;43.726;20.692;2023-03-14T11:43:33;13.48;;;4.85;;
76850;SDS011;65824;43.726;20.692;2023-03-14T11:46:22;12.35;;;5.32;;
76850;SDS011;65824;43.726;20.692;2023-03-14T11:51:29;11.00;;;5.47;;
76850;SDS011;65824;43.726;20.692;2023-03-14T11:54:04;10.43;;;5.40;;
76850;SDS011;65824;43.726;20.692;2023-03-14T11:56:42;12.50;;;5.30;;
76850;SDS011;65824;43.726;20.692;2023-03-14T11:59:19;13.18;;;6.30;;
76850;SDS011;65824;43.726;20.692;2023-03-14T12:01:58;11.60;;;5.63;;
76850;SDS011;65824;43.726;20.692;2023-03-14T12:07:19;9.77;;;5.20;;
76850;SDS011;65824;43.726;20.692;2023-03-14T12:12:13;15.15;;;6.43;;
76850;SDS011;65824;43.726;20.692;2023-03-14T12:14:44;9.82;;;5.25;;
76850;SDS011;65824;43.726;20.692;2023-03-14T12:19:38;10.20;;;4.90;;
76850;SDS011;65824;43.726;20.692;2023-03-14T12:30:23;11.43;;;5.22;;
76850;SDS011;65824;43.726;20.692;2023-03-14T12:38:37;9.20;;;4.90;;
76850;SDS011;65824;43.726;20.692;2023-03-14T12:41:20;13.35;;;5.25;;
76850;SDS011;65824;43.726;20.692;2023-03-14T12:43:48;17.80;;;7.85;;
76850;SDS011;65824;43.726;20.692;2023-03-14T12:46:22;9.88;;;4.63;;
76850;SDS011;65824;43.726;20.692;2023-03-14T12:51:47;10.98;;;4.68;;
76850;SDS011;65824;43.726;20.692;2023-03-14T12:59:35;12.27;;;5.50;;
76850;SDS011;65824;43.726;20.692;2023-03-14T13:04:43;10.40;;;5.15;;
76850;SDS011;65824;43.726;20.692;2023-03-14T13:07:34;12.15;;;6.10;;
76850;SDS011;65824;43.726;20.692;2023-03-14T13:10:02;9.07;;;4.97;;
76850;SDS011;65824;43.726;20.692;2023-03-14T13:17:51;10.85;;;4.07;;
76850;SDS011;65824;43.726;20.692;2023-03-14T13:22:49;10.57;;;4.30;;
76850;SDS011;65824;43.726;20.692;2023-03-14T13:25:15;8.82;;;4.25;;
76850;SDS011;65824;43.726;20.692;2023-03-14T13:27:42;10.85;;;4.53;;
76850;SDS011;65824;43.726;20.692;2023-03-14T13:32:50;8.07;;;4.80;;
76850;SDS011;65824;43.726;20.692;2023-03-14T13:35:18;11.82;;;4.85;;
76850;SDS011;65824;43.726;20.692;2023-03-14T13:37:55;11.65;;;4.35;;
76850;SDS011;65824;43.726;20.692;2023-03-14T13:40:42;9.23;;;4.38;;
76850;SDS011;65824;43.726;20.692;2023-03-14T13:43:20;10.43;;;4.60;;
76850;SDS011;65824;43.726;20.692;2023-03-14T13:45:50;10.52;;;4.97;;
76850;SDS011;65824;43.726;20.692;2023-03-14T13:48:16;11.60;;;4.90;;
76850;SDS011;65824;43.726;20.692;2023-03-14T13:50:55;12.38;;;4.80;;
76850;SDS011;65824;43.726;20.692;2023-03-14T13:53:47;10.38;;;4.70;;
76850;SDS011;65824;43.726;20.692;2023-03-14T13:58:42;11.98;;;6.43;;
76850;SDS011;65824;43.726;20.692;2023-03-14T14:03:44;12.70;;;5.15;;
76850;SDS011;65824;43.726;20.692;2023-03-14T14:06:17;9.85;;;4.47;;
76850;SDS011;65824;43.726;20.692;2023-03-14T14:08:48;11.02;;;4.03;;
76850;SDS011;65824;43.726;20.692;2023-03-14T14:12:16;7.55;;;3.70;;
76850;SDS011;65824;43.726;20.692;2023-03-14T14:14:25;9.88;;;3.88;;
76850;SDS011;65824;43.726;20.692;2023-03-14T14:17:01;11.55;;;4.32;;
76850;SDS011;65824;43.726;20.692;2023-03-14T14:19:33;11.43;;;4.00;;
76850;SDS011;65824;43.726;20.692;2023-03-14T14:21:59;12.93;;;4.65;;
76850;SDS011;65824;43.726;20.692;2023-03-14T14:24:28;12.88;;;5.25;;
76850;SDS011;65824;43.726;20.692;2023-03-14T14:27:00;8.80;;;4.13;;
76850;SDS011;65824;43.726;20.692;2023-03-14T14:29:28;10.32;;;4.03;;
76850;SDS011;65824;43.726;20.692;2023-03-14T14:32:33;13.20;;;4.30;;
76850;SDS011;65824;43.726;20.692;2023-03-14T14:34:56;10.43;;;3.90;;
76850;SDS011;65824;43.726;20.692;2023-03-14T14:37:29;8.93;;;4.10;;
76850;SDS011;65824;43.726;20.692;2023-03-14T14:39:58;15.23;;;5.00;;
76850;SDS011;65824;43.726;20.692;2023-03-14T14:42:27;14.05;;;6.18;;
76850;SDS011;65824;43.726;20.692;2023-03-14T14:44:56;12.32;;;5.63;;
76850;SDS011;65824;43.726;20.692;2023-03-14T14:47:23;15.10;;;5.65;;
76850;SDS011;65824;43.726;20.692;2023-03-14T14:49:51;14.98;;;5.45;;
76850;SDS011;65824;43.726;20.692;2023-03-14T14:52:19;12.18;;;6.15;;
76850;SDS011;65824;43.726;20.692;2023-03-14T14:57:20;14.50;;;5.97;;
76850;SDS011;65824;43.726;20.692;2023-03-14T14:59:48;14.18;;;5.90;;
76850;SDS011;65824;43.726;20.692;2023-03-14T15:02:32;14.13;;;5.40;;
76850;SDS011;65824;43.726;20.692;2023-03-14T15:05:12;9.73;;;4.68;;
76850;SDS011;65824;43.726;20.692;2023-03-14T15:07:56;11.57;;;4.88;;
76850;SDS011;65824;43.726;20.692;2023-03-14T15:10:23;10.45;;;4.85;;
76850;SDS011;65824;43.726;20.692;2023-03-14T15:12:51;11.23;;;5.70;;
76850;SDS011;65824;43.726;20.692;2023-03-14T15:15:17;9.43;;;4.90;;
76850;SDS011;65824;43.726;20.692;2023-03-14T15:17:43;11.20;;;5.72;;
76850;SDS011;65824;43.726;20.692;2023-03-14T15:20:13;11.93;;;5.55;;
76850;SDS011;65824;43.726;20.692;2023-03-14T15:22:40;13.88;;;6.38;;
76850;SDS011;65824;43.726;20.692;2023-03-14T15:25:09;10.15;;;5.20;;
76850;SDS011;65824;43.726;20.692;2023-03-14T15:27:35;12.93;;;5.63;;
76850;SDS011;65824;43.726;20.692;2023-03-14T15:30:01;11.68;;;5.78;;
76850;SDS011;65824;43.726;20.692;2023-03-14T15:32:29;10.82;;;5.47;;
76850;SDS011;65824;43.726;20.692;2023-03-14T15:34:55;11.02;;;5.45;;
76850;SDS011;65824;43.726;20.692;2023-03-14T15:37:21;13.75;;;6.50;;
76850;SDS011;65824;43.726;20.692;2023-03-14T15:39:47;15.93;;;6.32;;
76850;SDS011;65824;43.726;20.692;2023-03-14T15:42:12;14.40;;;5.88;;
76850;SDS011;65824;43.726;20.692;2023-03-14T15:44:38;13.18;;;6.53;;
76850;SDS011;65824;43.726;20.692;2023-03-14T15:47:04;16.00;;;6.47;;
76850;SDS011;65824;43.726;20.692;2023-03-14T15:49:30;14.07;;;7.18;;
76850;SDS011;65824;43.726;20.692;2023-03-14T15:51:59;15.13;;;7.13;;
76850;SDS011;65824;43.726;20.692;2023-03-14T15:54:25;11.75;;;5.95;;
76850;SDS011;65824;43.726;20.692;2023-03-14T15:56:53;8.50;;;4.30;;
76850;SDS011;65824;43.726;20.692;2023-03-14T15:59:22;12.98;;;6.95;;
76850;SDS011;65824;43.726;20.692;2023-03-14T16:01:51;20.23;;;11.80;;
76850;SDS011;65824;43.726;20.692;2023-03-14T16:04:17;14.00;;;6.57;;
76850;SDS011;65824;43.726;20.692;2023-03-14T16:06:43;13.50;;;5.75;;